createdAt,value
2023-04-15T00:00:28.439Z,231.46
2023-04-15T00:01:28.438Z,231.00
2023-04-15T00:02:28.556Z,230.99
2023-04-15T00:03:28.585Z,231.12
2023-04-15T00:04:28.493Z,230.56
2023-04-15T00:05:28.399Z,230.59
2023-04-15T00:06:28.453Z,229.30
2023-04-15T00:07:28.497Z,230.18
2023-04-15T00:08:28.563Z,229.73
2023-04-15T00:09:28.598Z,229.49
2023-04-15T00:10:28.650Z,229.64
2023-04-15T00:11:28.690Z,228.90
2023-04-15T00:12:28.736Z,227.99
2023-04-15T00:13:28.801Z,228.79
2023-04-15T00:14:28.848Z,228.42
2023-04-15T00:15:28.876Z,228.46
2023-04-15T00:16:28.958Z,228.15
2023-04-15T00:17:28.994Z,228.13
2023-04-15T00:18:29.026Z,228.30
2023-04-15T00:19:29.060Z,227.53
2023-04-15T00:20:29.124Z,227.34
2023-04-15T00:21:29.184Z,227.33
2023-04-15T00:22:29.221Z,227.45
2023-04-15T00:23:29.273Z,226.63
2023-04-15T00:24:29.340Z,226.51
2023-04-15T00:25:29.392Z,226.27
2023-04-15T00:26:29.404Z,226.22
2023-04-15T00:27:29.479Z,226.57
2023-04-15T00:28:29.477Z,226.62
2023-04-15T00:29:29.504Z,226.69
2023-04-15T00:30:29.456Z,226.98
2023-04-15T00:31:29.704Z,227.68
2023-04-15T00:32:29.510Z,228.12
2023-04-15T00:33:29.446Z,227.78
2023-04-15T00:34:29.428Z,228.58
2023-04-15T00:35:29.440Z,227.82
2023-04-15T00:36:29.428Z,227.61
2023-04-15T00:37:29.452Z,228.55
2023-04-15T00:38:29.494Z,228.85
2023-04-15T00:39:29.554Z,229.42
2023-04-15T00:40:29.606Z,228.97
2023-04-15T00:41:29.658Z,229.45
2023-04-15T00:42:29.707Z,230.08
2023-04-15T00:43:29.776Z,229.51
2023-04-15T00:44:29.823Z,230.15
2023-04-15T00:45:29.959Z,230.15
2023-04-15T00:46:29.932Z,230.64
2023-04-15T00:47:30.010Z,230.68
2023-04-15T00:48:30.037Z,230.25
2023-04-15T00:49:30.003Z,230.34
2023-04-15T00:50:30.041Z,230.56
2023-04-15T00:51:29.989Z,230.86
2023-04-15T00:52:30.010Z,231.27
2023-04-15T00:53:30.001Z,231.77
2023-04-15T00:54:29.965Z,232.07
2023-04-15T00:55:30.017Z,232.07
2023-04-15T00:56:29.973Z,232.92
2023-04-15T00:57:29.943Z,232.36
2023-04-15T00:58:30.006Z,233.21
2023-04-15T00:59:30.043Z,232.40
2023-04-15T01:00:30.096Z,233.23
2023-04-15T01:01:30.218Z,232.80
2023-04-15T01:02:30.303Z,233.55
2023-04-15T01:03:30.282Z,232.52
2023-04-15T01:04:30.407Z,233.65
2023-04-15T01:05:30.331Z,233.65
2023-04-15T01:06:30.386Z,233.18
2023-04-15T01:07:30.448Z,233.45
2023-04-15T01:08:30.507Z,233.69
2023-04-15T01:09:30.562Z,233.42
2023-04-15T01:10:30.609Z,234.11
2023-04-15T01:11:30.686Z,234.00
2023-04-15T01:12:30.703Z,233.36
2023-04-15T01:13:30.757Z,234.41
2023-04-15T01:14:30.818Z,234.03
2023-04-15T01:15:30.858Z,234.42
2023-04-15T01:16:30.963Z,235.36
2023-04-15T01:17:31.003Z,235.10
2023-04-15T01:18:31.029Z,234.49
2023-04-15T01:19:31.089Z,234.79
2023-04-15T01:20:31.137Z,234.35
2023-04-15T01:21:31.189Z,234.35
2023-04-15T01:22:31.240Z,234.50
2023-04-15T01:23:31.307Z,235.06
2023-04-15T01:24:31.368Z,235.23
2023-04-15T01:25:31.407Z,235.07
2023-04-15T01:26:31.472Z,235.49
2023-04-15T01:27:31.524Z,235.42
2023-04-15T01:28:31.576Z,235.30
2023-04-15T01:29:31.634Z,235.61
2023-04-15T01:30:31.688Z,235.44
2023-04-15T01:31:31.823Z,235.24
2023-04-15T01:32:31.838Z,235.29
2023-04-15T01:33:31.876Z,235.79
2023-04-15T01:34:34.284Z,235.26
2023-04-15T01:35:31.916Z,236.55
2023-04-15T01:36:31.899Z,237.26
2023-04-15T01:37:31.907Z,236.29
2023-04-15T01:38:31.902Z,236.14
2023-04-15T01:39:31.907Z,236.05
2023-04-15T01:40:31.902Z,236.39
2023-04-15T01:41:31.901Z,236.39
2023-04-15T01:42:31.910Z,236.38
2023-04-15T01:43:31.892Z,237.10
2023-04-15T01:44:31.887Z,236.75
2023-04-15T01:45:31.898Z,236.83
2023-04-15T01:46:31.923Z,235.85
2023-04-15T01:47:31.964Z,236.14
2023-04-15T01:48:31.905Z,236.56
2023-04-15T01:49:31.891Z,237.29
2023-04-15T01:50:31.864Z,237.37
2023-04-15T01:51:31.886Z,236.16
2023-04-15T01:52:31.867Z,238.00
2023-04-15T01:53:31.866Z,237.80
2023-04-15T01:54:31.863Z,238.02
2023-04-15T01:55:31.869Z,237.88
2023-04-15T01:56:31.848Z,237.61
2023-04-15T01:57:31.843Z,237.42
2023-04-15T01:58:31.815Z,238.20
2023-04-15T01:59:31.835Z,237.35
2023-04-15T02:00:31.811Z,238.17
2023-04-15T02:01:31.871Z,237.12
2023-04-15T02:02:31.946Z,237.60
2023-04-15T02:03:31.923Z,238.28
2023-04-15T02:04:31.798Z,237.70
2023-04-15T02:05:31.857Z,237.91
2023-04-15T02:06:31.923Z,237.98
2023-04-15T02:07:31.965Z,238.38
2023-04-15T02:08:32.026Z,238.53
2023-04-15T02:09:32.090Z,238.63
2023-04-15T02:10:32.151Z,238.04
2023-04-15T02:11:32.224Z,238.16
2023-04-15T02:12:32.238Z,238.55
2023-04-15T02:13:32.283Z,239.13
2023-04-15T02:14:32.356Z,238.86
2023-04-15T02:15:32.399Z,238.87
2023-04-15T02:16:32.544Z,238.09
2023-04-15T02:17:32.603Z,238.81
2023-04-15T02:18:32.569Z,238.86
2023-04-15T02:19:32.631Z,239.47
2023-04-15T02:20:32.683Z,238.68
2023-04-15T02:21:32.736Z,239.54
2023-04-15T02:22:32.882Z,239.07
2023-04-15T02:23:32.858Z,239.45
2023-04-15T02:24:32.911Z,239.47
2023-04-15T02:25:33.005Z,239.08
2023-04-15T02:26:33.015Z,238.98
2023-04-15T02:27:33.089Z,239.83
2023-04-15T02:28:33.121Z,239.60
2023-04-15T02:29:33.172Z,239.30
2023-04-15T02:30:33.229Z,239.64
2023-04-15T02:31:33.289Z,239.77
2023-04-15T02:32:33.340Z,240.27
2023-04-15T02:33:33.400Z,239.50
2023-04-15T02:34:33.434Z,240.08
2023-04-15T02:35:33.475Z,239.20
2023-04-15T02:36:33.528Z,239.53
2023-04-15T02:37:33.576Z,238.38
2023-04-15T02:38:33.646Z,237.75
2023-04-15T02:39:33.723Z,235.21
2023-04-15T02:40:33.733Z,232.68
2023-04-15T02:41:33.825Z,229.16
2023-04-15T02:42:33.860Z,225.68
2023-04-15T02:43:33.930Z,222.00
2023-04-15T02:44:34.015Z,218.17
2023-04-15T02:45:34.047Z,214.09
2023-04-15T02:46:34.160Z,208.98
2023-04-15T02:47:34.128Z,207.13
2023-04-15T02:48:34.107Z,203.41
2023-04-15T02:49:34.168Z,200.31
2023-04-15T02:50:34.117Z,196.42
2023-04-15T02:51:34.660Z,194.07
2023-04-15T02:52:34.241Z,192.81
2023-04-15T02:53:34.136Z,189.45
2023-04-15T02:54:34.135Z,188.71
2023-04-15T02:55:34.227Z,186.34
2023-04-15T02:56:34.119Z,185.45
2023-04-15T02:57:34.171Z,183.05
2023-04-15T02:58:34.162Z,180.49
2023-04-15T02:59:34.167Z,177.65
2023-04-15T03:00:34.198Z,176.22
2023-04-15T03:01:34.210Z,174.32
2023-04-15T03:02:34.242Z,171.61
2023-04-15T03:03:34.270Z,169.63
2023-04-15T03:04:34.237Z,168.94
2023-04-15T03:05:34.304Z,167.42
2023-04-15T03:06:34.292Z,165.88
2023-04-15T03:07:34.289Z,166.50
2023-04-15T03:08:34.345Z,164.89
2023-04-15T03:09:34.341Z,163.67
2023-04-15T03:10:34.385Z,162.26
2023-04-15T03:11:36.060Z,160.35
2023-04-15T03:12:34.426Z,160.36
2023-04-15T03:13:34.481Z,157.85
2023-04-15T03:14:34.415Z,157.44
2023-04-15T03:15:34.436Z,155.45
2023-04-15T03:16:34.519Z,153.66
2023-04-15T03:17:34.452Z,152.38
2023-04-15T03:18:34.445Z,152.14
2023-04-15T03:19:34.413Z,149.97
2023-04-15T03:20:34.459Z,149.51
2023-04-15T03:21:34.409Z,147.34
2023-04-15T03:22:34.439Z,147.93
2023-04-15T03:23:34.428Z,145.62
2023-04-15T03:24:34.456Z,146.80
2023-04-15T03:25:34.477Z,147.92
2023-04-15T03:26:34.488Z,150.53
2023-04-15T03:27:34.460Z,152.89
2023-04-15T03:28:34.455Z,154.51
2023-04-15T03:29:34.470Z,156.14
2023-04-15T03:30:34.459Z,158.29
2023-04-15T03:31:34.484Z,160.13
2023-04-15T03:32:34.473Z,160.25
2023-04-15T03:33:34.461Z,161.66
2023-04-15T03:34:34.465Z,164.08
2023-04-15T03:35:34.665Z,164.90
2023-04-15T03:36:34.486Z,167.10
2023-04-15T03:37:34.471Z,168.37
2023-04-15T03:38:34.483Z,169.70
2023-04-15T03:39:34.469Z,170.65
2023-04-15T03:40:34.470Z,172.69
2023-04-15T03:41:34.506Z,174.03
2023-04-15T03:42:34.482Z,174.67
2023-04-15T03:43:34.505Z,174.77
2023-04-15T03:44:34.484Z,175.28
2023-04-15T03:45:34.487Z,176.22
2023-04-15T03:46:34.505Z,177.85
2023-04-15T03:47:34.534Z,180.23
2023-04-15T03:48:34.482Z,181.61
2023-04-15T03:49:34.528Z,182.67
2023-04-15T03:50:34.529Z,182.97
2023-04-15T03:51:34.485Z,184.73
2023-04-15T03:52:34.452Z,184.93
2023-04-15T03:53:35.178Z,185.74
2023-04-15T03:54:34.466Z,186.18
2023-04-15T03:55:34.525Z,186.70
2023-04-15T03:56:34.458Z,186.78
2023-04-15T03:57:34.460Z,187.22
2023-04-15T03:58:34.460Z,187.23
2023-04-15T03:59:34.464Z,188.60
2023-04-15T04:00:34.478Z,188.86
2023-04-15T04:01:34.591Z,188.41
2023-04-15T04:02:34.549Z,189.63
2023-04-15T04:03:35.324Z,190.42
2023-04-15T04:04:34.552Z,189.66
2023-04-15T04:05:34.557Z,190.36
2023-04-15T04:06:34.579Z,191.09
2023-04-15T04:07:34.607Z,191.08
2023-04-15T04:08:34.658Z,192.26
2023-04-15T04:09:34.644Z,192.84
2023-04-15T04:10:34.690Z,193.05
2023-04-15T04:11:34.695Z,193.32
2023-04-15T04:12:34.754Z,189.00
2023-04-15T04:13:34.759Z,186.80
2023-04-15T04:14:34.756Z,181.78
2023-04-15T04:15:34.787Z,178.08
2023-04-15T04:16:34.820Z,176.12
2023-04-15T04:17:34.789Z,171.58
2023-04-15T04:18:34.766Z,170.27
2023-04-15T04:19:34.774Z,164.08
2023-04-15T04:20:34.770Z,160.76
2023-04-15T04:21:34.775Z,157.57
2023-04-15T04:22:34.785Z,154.56
2023-04-15T04:23:34.859Z,151.23
2023-04-15T04:24:34.779Z,149.12
2023-04-15T04:25:34.814Z,147.61
2023-04-15T04:26:34.808Z,146.92
2023-04-15T04:27:34.813Z,146.33
2023-04-15T04:28:34.821Z,143.80
2023-04-15T04:29:34.817Z,144.14
2023-04-15T04:30:34.819Z,141.18
2023-04-15T04:31:34.840Z,139.35
2023-04-15T04:32:34.870Z,138.09
2023-04-15T04:33:34.828Z,136.50
2023-04-15T04:34:34.869Z,134.54
2023-04-15T04:35:34.870Z,132.83
2023-04-15T04:36:34.865Z,131.92
2023-04-15T04:37:34.883Z,128.02
2023-04-15T04:38:34.869Z,127.08
2023-04-15T04:39:34.875Z,125.46
2023-04-15T04:40:34.896Z,123.80
2023-04-15T04:41:34.912Z,121.10
2023-04-15T04:42:35.442Z,120.23
2023-04-15T04:43:34.904Z,119.46
2023-04-15T04:44:34.911Z,118.13
2023-04-15T04:45:34.945Z,116.60
2023-04-15T04:46:34.950Z,114.97
2023-04-15T04:47:35.063Z,114.67
2023-04-15T04:48:35.047Z,116.21
2023-04-15T04:49:35.083Z,113.18
2023-04-15T04:50:35.152Z,111.05
2023-04-15T04:51:35.201Z,111.22
2023-04-15T04:52:35.265Z,110.91
2023-04-15T04:53:35.305Z,111.39
2023-04-15T04:54:35.334Z,112.06
2023-04-15T04:55:35.399Z,110.39
2023-04-15T04:56:35.434Z,109.98
2023-04-15T04:57:35.507Z,111.18
2023-04-15T04:58:35.554Z,109.02
2023-04-15T04:59:35.571Z,108.42
2023-04-15T05:00:35.653Z,107.69
2023-04-15T05:01:35.751Z,106.86
2023-04-15T05:02:35.826Z,105.85
2023-04-15T05:03:36.051Z,106.36
2023-04-15T05:04:35.861Z,108.20
2023-04-15T05:05:35.900Z,106.97
2023-04-15T05:06:35.974Z,107.35
2023-04-15T05:07:36.003Z,108.65
2023-04-15T05:08:36.065Z,109.30
2023-04-15T05:09:36.115Z,109.95
2023-04-15T05:10:36.174Z,111.03
2023-04-15T05:11:36.246Z,110.77
2023-04-15T05:12:36.278Z,110.74
2023-04-15T05:13:36.350Z,112.02
2023-04-15T05:14:36.396Z,113.48
2023-04-15T05:15:36.460Z,113.96
2023-04-15T05:16:36.552Z,115.58
2023-04-15T05:17:36.619Z,116.12
2023-04-15T05:18:36.643Z,116.70
2023-04-15T05:19:36.707Z,118.11
2023-04-15T05:20:36.792Z,116.82
2023-04-15T05:21:38.996Z,116.67
2023-04-15T05:22:36.856Z,118.23
2023-04-15T05:23:36.820Z,118.28
2023-04-15T05:24:36.853Z,119.55
2023-04-15T05:25:36.857Z,119.56
2023-04-15T05:26:37.220Z,118.16
2023-04-15T05:27:36.878Z,117.85
2023-04-15T05:28:36.860Z,117.27
2023-04-15T05:29:36.870Z,118.40
2023-04-15T05:30:36.859Z,120.45
2023-04-15T05:31:36.934Z,119.09
2023-04-15T05:32:36.896Z,119.45
2023-04-15T05:33:36.881Z,118.64
2023-04-15T05:34:36.882Z,118.68
2023-04-15T05:35:36.902Z,118.72
2023-04-15T05:36:36.912Z,118.70
2023-04-15T05:37:36.904Z,115.69
2023-04-15T05:38:36.910Z,115.30
2023-04-15T05:39:36.923Z,114.09
2023-04-15T05:40:36.919Z,113.65
2023-04-15T05:41:36.920Z,113.53
2023-04-15T05:42:36.951Z,112.01
2023-04-15T05:43:37.030Z,112.12
2023-04-15T05:44:36.956Z,111.64
2023-04-15T05:45:36.967Z,110.72
2023-04-15T05:46:37.228Z,108.81
2023-04-15T05:47:37.116Z,107.39
2023-04-15T05:48:37.172Z,106.87
2023-04-15T05:49:38.220Z,107.97
2023-04-15T05:50:37.281Z,105.53
2023-04-15T05:51:37.350Z,105.18
2023-04-15T05:52:37.408Z,102.39
2023-04-15T05:53:37.477Z,103.36
2023-04-15T05:54:37.532Z,102.16
2023-04-15T05:55:37.585Z,100.24
2023-04-15T05:56:37.593Z,97.89
2023-04-15T05:57:37.599Z,96.20
2023-04-15T05:58:37.592Z,92.15
2023-04-15T05:59:37.589Z,90.07
2023-04-15T06:00:37.600Z,87.01
2023-04-15T06:01:37.617Z,84.85
2023-04-15T06:02:37.858Z,85.00
2023-04-15T06:03:37.837Z,83.42
2023-04-15T06:04:37.756Z,82.15
2023-04-15T06:05:37.631Z,82.31
2023-04-15T06:06:37.644Z,82.20
2023-04-15T06:07:37.695Z,81.51
2023-04-15T06:08:37.753Z,82.36
2023-04-15T06:09:37.816Z,82.58
2023-04-15T06:10:37.887Z,83.21
2023-04-15T06:11:37.959Z,83.49
2023-04-15T06:12:38.003Z,84.63
2023-04-15T06:13:38.064Z,83.08
2023-04-15T06:14:38.103Z,83.58
2023-04-15T06:15:38.169Z,83.29
2023-04-15T06:16:38.348Z,82.73
2023-04-15T06:17:38.296Z,84.48
2023-04-15T06:18:38.340Z,82.96
2023-04-15T06:19:38.376Z,83.91
2023-04-15T06:20:38.444Z,83.95
2023-04-15T06:21:38.529Z,82.97
2023-04-15T06:22:38.537Z,82.52
2023-04-15T06:23:38.593Z,82.19
2023-04-15T06:24:38.660Z,82.15
2023-04-15T06:25:38.725Z,82.58
2023-04-15T06:26:38.786Z,83.84
2023-04-15T06:27:38.826Z,83.89
2023-04-15T06:28:38.901Z,82.04
2023-04-15T06:29:38.939Z,83.53
2023-04-15T06:30:39.008Z,82.45
2023-04-15T06:31:39.208Z,82.54
2023-04-15T06:32:39.169Z,84.54
2023-04-15T06:33:39.178Z,82.22
2023-04-15T06:34:39.247Z,80.95
2023-04-15T06:35:39.352Z,80.53
2023-04-15T06:36:39.381Z,78.92
2023-04-15T06:37:39.430Z,78.44
2023-04-15T06:38:39.499Z,76.27
2023-04-15T06:39:39.561Z,74.18
2023-04-15T06:40:39.650Z,71.86
2023-04-15T06:41:39.717Z,70.64
2023-04-15T06:42:39.750Z,68.83
2023-04-15T06:43:39.804Z,65.36
2023-04-15T06:44:39.853Z,63.09
2023-04-15T06:45:39.922Z,60.75
2023-04-15T06:46:39.996Z,60.12
2023-04-15T06:47:40.072Z,58.55
2023-04-15T06:48:40.083Z,55.03
2023-04-15T06:49:40.151Z,51.72
2023-04-15T06:50:40.190Z,49.14
2023-04-15T06:51:40.263Z,45.06
2023-04-15T06:52:40.309Z,44.65
2023-04-15T06:53:40.299Z,43.27
2023-04-15T06:54:40.324Z,40.81
2023-04-15T06:55:40.312Z,38.53
2023-04-15T06:56:40.377Z,35.34
2023-04-15T06:57:40.334Z,33.41
2023-04-15T06:58:40.346Z,31.83
2023-04-15T06:59:40.355Z,29.52
2023-04-15T07:00:40.506Z,25.00
2023-04-15T07:01:40.388Z,25.83
2023-04-15T07:02:40.500Z,25.86
2023-04-15T07:03:40.323Z,25.92
2023-04-15T07:04:40.531Z,22.66
2023-04-15T07:05:40.334Z,22.13
2023-04-15T07:06:40.326Z,16.97
2023-04-15T07:07:40.329Z,25.20
2023-04-15T07:08:40.334Z,26.10
2023-04-15T07:09:40.336Z,25.00
2023-04-15T07:10:40.334Z,25.68
2023-04-15T07:11:40.362Z,27.52
2023-04-15T07:12:40.354Z,34.28
2023-04-15T07:13:40.376Z,39.78
2023-04-15T07:14:40.413Z,43.29
2023-04-15T07:15:40.438Z,50.58
2023-04-15T07:16:40.496Z,56.59
2023-04-15T07:17:40.514Z,61.77
2023-04-15T07:18:40.503Z,66.04
2023-04-15T07:19:40.528Z,71.86
2023-04-15T07:20:40.568Z,75.18
2023-04-15T07:21:41.905Z,79.17
2023-04-15T07:22:40.604Z,83.51
2023-04-15T07:23:40.632Z,86.34
2023-04-15T07:24:40.614Z,90.10
2023-04-15T07:25:40.614Z,90.30
2023-04-15T07:26:40.634Z,91.36
2023-04-15T07:27:40.618Z,94.45
2023-04-15T07:28:40.593Z,99.56
2023-04-15T07:29:40.590Z,109.57
2023-04-15T07:30:40.603Z,113.33
2023-04-15T07:31:40.629Z,116.14
2023-04-15T07:32:40.660Z,119.96
2023-04-15T07:33:40.601Z,120.78
2023-04-15T07:34:40.567Z,123.46
2023-04-15T07:35:40.571Z,126.27
2023-04-15T07:36:40.576Z,127.80
2023-04-15T07:37:40.578Z,129.81
2023-04-15T07:38:40.549Z,132.38
2023-04-15T07:39:40.548Z,134.72
2023-04-15T07:40:40.563Z,137.55
2023-04-15T07:41:40.552Z,139.23
2023-04-15T07:42:41.472Z,142.11
2023-04-15T07:43:40.514Z,144.31
2023-04-15T07:44:40.550Z,145.24
2023-04-15T07:45:40.621Z,147.78
2023-04-15T07:46:40.808Z,149.23
2023-04-15T07:47:40.770Z,150.85
2023-04-15T07:48:40.820Z,152.96
2023-04-15T07:49:40.839Z,154.82
2023-04-15T07:50:40.906Z,156.20
2023-04-15T07:51:40.968Z,157.23
2023-04-15T07:52:41.017Z,159.01
2023-04-15T07:53:41.088Z,160.54
2023-04-15T07:54:41.162Z,161.81
2023-04-15T07:55:41.132Z,161.88
2023-04-15T07:56:41.124Z,162.32
2023-04-15T07:57:41.121Z,163.26
2023-04-15T07:58:41.125Z,165.13
2023-04-15T07:59:41.118Z,168.81
2023-04-15T08:00:41.092Z,169.59
2023-04-15T08:01:41.095Z,170.35
2023-04-15T08:02:41.322Z,170.13
2023-04-15T08:03:41.234Z,168.13
2023-04-15T08:04:41.342Z,161.19
2023-04-15T08:05:41.190Z,155.10
2023-04-15T08:06:41.230Z,138.01
2023-04-15T08:07:41.326Z,121.53
2023-04-15T08:08:41.341Z,109.25
2023-04-15T08:09:41.343Z,95.20
2023-04-15T08:10:41.348Z,80.80
2023-04-15T08:11:41.318Z,71.83
2023-04-15T08:12:41.308Z,62.81
2023-04-15T08:13:41.285Z,53.79
2023-04-15T08:14:41.278Z,44.10
2023-04-15T08:15:41.294Z,38.66
2023-04-15T08:16:41.259Z,34.17
2023-04-15T08:17:41.360Z,37.10
2023-04-15T08:18:41.375Z,42.75
2023-04-15T08:19:41.396Z,46.50
2023-04-15T08:20:41.453Z,52.38
2023-04-15T08:21:41.525Z,55.21
2023-04-15T08:22:41.601Z,61.02
2023-04-15T08:23:41.632Z,64.49
2023-04-15T08:24:41.671Z,68.78
2023-04-15T08:25:41.702Z,72.97
2023-04-15T08:26:41.745Z,77.47
2023-04-15T08:27:41.781Z,81.26
2023-04-15T08:28:41.820Z,83.63
2023-04-15T08:29:41.864Z,88.29
2023-04-15T08:30:41.888Z,93.90
2023-04-15T08:31:41.976Z,96.63
2023-04-15T08:32:42.012Z,98.15
2023-04-15T08:33:42.021Z,103.71
2023-04-15T08:34:42.062Z,107.53
2023-04-15T08:35:42.096Z,107.50
2023-04-15T08:36:42.119Z,110.05
2023-04-15T08:37:42.166Z,112.95
2023-04-15T08:38:42.240Z,113.94
2023-04-15T08:39:42.245Z,119.34
2023-04-15T08:40:42.279Z,122.91
2023-04-15T08:41:42.311Z,126.08
2023-04-15T08:42:42.957Z,124.51
2023-04-15T08:43:42.356Z,129.00
2023-04-15T08:44:42.384Z,127.68
2023-04-15T08:45:42.439Z,129.02
2023-04-15T08:46:42.519Z,133.96
2023-04-15T08:47:42.529Z,135.34
2023-04-15T08:48:42.478Z,141.20
2023-04-15T08:49:42.498Z,143.48
2023-04-15T08:50:42.508Z,142.68
2023-04-15T08:51:42.534Z,144.21
2023-04-15T08:52:42.558Z,145.33
2023-04-15T08:53:42.569Z,145.88
2023-04-15T08:54:42.555Z,149.46
2023-04-15T08:55:42.581Z,151.37
2023-04-15T08:56:42.687Z,154.36
2023-04-15T08:57:42.609Z,155.82
2023-04-15T08:58:42.587Z,156.57
2023-04-15T08:59:42.597Z,158.90
2023-04-15T09:00:42.620Z,162.21
2023-04-15T09:01:42.790Z,162.72
2023-04-15T09:02:42.827Z,164.48
2023-04-15T09:03:42.744Z,165.30
2023-04-15T09:04:42.610Z,167.42
2023-04-15T09:05:42.617Z,168.17
2023-04-15T09:06:42.607Z,170.21
2023-04-15T09:07:42.646Z,171.07
2023-04-15T09:08:42.593Z,172.36
2023-04-15T09:09:42.599Z,173.75
2023-04-15T09:10:42.576Z,176.48
2023-04-15T09:11:42.595Z,178.73
2023-04-15T09:12:42.563Z,179.47
2023-04-15T09:13:42.554Z,179.09
2023-04-15T09:14:42.558Z,181.65
2023-04-15T09:15:42.520Z,183.56
2023-04-15T09:16:42.542Z,185.48
2023-04-15T09:17:42.534Z,187.34
2023-04-15T09:18:42.489Z,188.49
2023-04-15T09:19:42.475Z,190.04
2023-04-15T09:20:42.452Z,192.03
2023-04-15T09:21:42.427Z,192.94
2023-04-15T09:22:42.398Z,194.64
2023-04-15T09:23:42.391Z,196.30
2023-04-15T09:24:42.397Z,197.45
2023-04-15T09:25:42.361Z,199.84
2023-04-15T09:26:42.329Z,200.59
2023-04-15T09:27:42.322Z,202.02
2023-04-15T09:28:42.293Z,204.02
2023-04-15T09:29:42.297Z,206.13
2023-04-15T09:30:42.282Z,205.43
2023-04-15T09:31:42.235Z,206.98
2023-04-15T09:32:42.224Z,208.86
2023-04-15T09:33:42.194Z,209.57
2023-04-15T09:34:42.183Z,211.55
2023-04-15T09:35:42.143Z,211.74
2023-04-15T09:36:42.138Z,213.20
2023-04-15T09:37:42.098Z,215.11
2023-04-15T09:38:42.116Z,215.24
2023-04-15T09:39:42.079Z,217.68
2023-04-15T09:40:42.074Z,218.50
2023-04-15T09:41:42.089Z,220.05
2023-04-15T09:42:42.083Z,219.69
2023-04-15T09:43:42.159Z,220.93
2023-04-15T09:44:42.154Z,222.49
2023-04-15T09:45:42.182Z,222.41
2023-04-15T09:46:42.215Z,223.44
2023-04-15T09:47:42.253Z,225.24
2023-04-15T09:48:42.294Z,226.11
2023-04-15T09:49:42.373Z,225.63
2023-04-15T09:50:42.322Z,227.07
2023-04-15T09:51:51.187Z,227.87
2023-04-15T09:52:43.329Z,228.01
2023-04-15T09:53:42.305Z,228.26
2023-04-15T09:54:42.288Z,228.72
2023-04-15T09:55:42.274Z,229.35
2023-04-15T09:56:42.248Z,231.29
2023-04-15T09:57:42.243Z,232.98
2023-04-15T09:58:42.200Z,233.33
2023-04-15T09:59:42.334Z,234.03
2023-04-15T10:00:42.142Z,234.94
2023-04-15T10:01:42.156Z,234.97
2023-04-15T10:02:42.180Z,235.10
2023-04-15T10:03:42.152Z,235.63
2023-04-15T10:04:42.066Z,235.86
2023-04-15T10:05:42.055Z,237.14
2023-04-15T10:06:42.006Z,237.44
2023-04-15T10:07:41.985Z,237.52
2023-04-15T10:08:41.975Z,237.91
2023-04-15T10:09:41.945Z,238.40
2023-04-15T10:10:41.912Z,239.25
2023-04-15T10:11:41.898Z,239.36
2023-04-15T10:12:41.872Z,239.91
2023-04-15T10:13:41.856Z,240.02
2023-04-15T10:14:41.846Z,240.42
2023-04-15T10:15:41.810Z,240.52
2023-04-15T10:16:41.805Z,240.58
2023-04-15T10:17:41.738Z,240.79
2023-04-15T10:18:41.721Z,240.56
2023-04-15T10:19:41.688Z,241.02
2023-04-15T10:20:41.665Z,241.89
2023-04-15T10:21:41.631Z,240.64
2023-04-15T10:22:41.590Z,241.31
2023-04-15T10:23:41.568Z,242.00
2023-04-15T10:24:41.550Z,243.78
2023-04-15T10:25:41.531Z,243.69
2023-04-15T10:26:41.496Z,246.47
2023-04-15T10:27:41.467Z,246.55
2023-04-15T10:28:41.507Z,246.97
2023-04-15T10:29:41.453Z,245.85
2023-04-15T10:30:41.462Z,246.48
2023-04-15T10:31:41.604Z,246.05
2023-04-15T10:32:41.534Z,247.55
2023-04-15T10:33:41.488Z,246.55
2023-04-15T10:34:41.503Z,246.61
2023-04-15T10:35:41.453Z,246.65
2023-04-15T10:36:41.411Z,247.16
2023-04-15T10:37:41.390Z,247.10
2023-04-15T10:38:41.343Z,246.90
2023-04-15T10:39:41.332Z,248.36
2023-04-15T10:40:41.371Z,247.90
2023-04-15T10:41:41.276Z,248.36
2023-04-15T10:42:41.299Z,247.30
2023-04-15T10:43:41.314Z,248.10
2023-04-15T10:44:41.357Z,248.84
2023-04-15T10:45:41.385Z,248.64
2023-04-15T10:46:41.456Z,247.72
2023-04-15T10:47:41.413Z,247.82
2023-04-15T10:48:41.359Z,247.86
2023-04-15T10:49:41.348Z,248.28
2023-04-15T10:50:41.332Z,248.27
2023-04-15T10:51:41.286Z,248.49
2023-04-15T10:52:41.259Z,248.90
2023-04-15T10:53:41.251Z,248.19
2023-04-15T10:54:41.219Z,249.56
2023-04-15T10:55:41.186Z,248.00
2023-04-15T10:56:41.221Z,248.58
2023-04-15T10:57:41.254Z,248.52
2023-04-15T10:58:41.292Z,249.30
2023-04-15T10:59:41.341Z,248.30
2023-04-15T11:00:41.373Z,248.86
2023-04-15T11:01:41.483Z,249.51
2023-04-15T11:02:41.832Z,249.57
2023-04-15T11:03:41.579Z,249.61
2023-04-15T11:04:43.083Z,249.65
2023-04-15T11:05:41.359Z,248.95
2023-04-15T11:06:41.336Z,249.59
2023-04-15T11:07:41.339Z,249.92
2023-04-15T11:08:41.282Z,250.17
2023-04-15T11:09:41.256Z,250.00
2023-04-15T11:10:41.235Z,251.56
2023-04-15T11:11:41.221Z,248.53
2023-04-15T11:12:41.300Z,248.84
2023-04-15T11:13:41.172Z,248.25
2023-04-15T11:14:41.201Z,248.55
2023-04-15T11:15:41.263Z,248.13
2023-04-15T11:16:41.321Z,248.30
2023-04-15T11:17:41.330Z,249.03
2023-04-15T11:18:41.332Z,248.02
2023-04-15T11:19:41.370Z,248.20
2023-04-15T11:20:41.386Z,249.10
2023-04-15T11:21:41.411Z,249.14
2023-04-15T11:22:41.431Z,248.55
2023-04-15T11:23:41.472Z,249.43
2023-04-15T11:24:41.518Z,248.00
2023-04-15T11:25:41.579Z,248.53
2023-04-15T11:26:41.585Z,249.42
2023-04-15T11:27:41.581Z,248.77
2023-04-15T11:28:41.567Z,248.49
2023-04-15T11:29:41.576Z,248.74
2023-04-15T11:30:41.583Z,249.36
2023-04-15T11:31:41.648Z,248.66
2023-04-15T11:32:41.645Z,248.95
2023-04-15T11:33:41.595Z,248.17
2023-04-15T11:34:41.625Z,249.09
2023-04-15T11:35:41.644Z,248.31
2023-04-15T11:36:41.665Z,249.68
2023-04-15T11:37:41.665Z,248.53
2023-04-15T11:38:41.693Z,247.88
2023-04-15T11:39:41.694Z,248.32
2023-04-15T11:40:42.806Z,248.22
2023-04-15T11:41:41.666Z,248.60
2023-04-15T11:42:49.511Z,248.69
2023-04-15T11:43:42.608Z,248.75
2023-04-15T11:44:41.574Z,248.97
2023-04-15T11:45:41.583Z,249.06
2023-04-15T11:46:41.506Z,249.43
2023-04-15T11:47:41.520Z,249.57
2023-04-15T11:48:41.484Z,248.68
2023-04-15T11:49:41.460Z,249.38
2023-04-15T11:50:41.419Z,248.34
2023-04-15T11:51:41.385Z,248.79
2023-04-15T11:52:41.357Z,248.99
2023-04-15T11:53:41.400Z,249.41
2023-04-15T11:54:41.317Z,248.87
2023-04-15T11:55:41.331Z,247.79
2023-04-15T11:56:41.287Z,247.80
2023-04-15T11:57:41.252Z,248.80
2023-04-15T11:58:41.218Z,248.82
2023-04-15T11:59:45.469Z,248.95
2023-04-15T12:00:41.178Z,248.97
2023-04-15T12:01:41.153Z,249.01
2023-04-15T12:02:41.286Z,248.06
2023-04-15T12:03:41.396Z,249.11
2023-04-15T12:04:41.201Z,249.84
2023-04-15T12:05:41.066Z,248.93
2023-04-15T12:06:41.029Z,248.49
2023-04-15T12:07:41.002Z,248.87
2023-04-15T12:08:40.997Z,249.25
2023-04-15T12:09:40.972Z,247.88
2023-04-15T12:10:40.941Z,249.39
2023-04-15T12:11:40.964Z,248.91
2023-04-15T12:12:40.907Z,248.37
2023-04-15T12:13:40.877Z,249.29
2023-04-15T12:14:40.890Z,249.47
2023-04-15T12:15:40.875Z,249.36
2023-04-15T12:16:48.505Z,248.97
2023-04-15T12:17:51.076Z,249.04
2023-04-15T12:18:41.754Z,249.09
2023-04-15T12:19:40.718Z,249.51
2023-04-15T12:20:40.707Z,249.75
2023-04-15T12:21:40.674Z,249.68
2023-04-15T12:22:40.649Z,250.63
2023-04-15T12:23:40.624Z,248.69
2023-04-15T12:24:40.656Z,248.81
2023-04-15T12:25:40.580Z,248.97
2023-04-15T12:26:40.545Z,249.01
2023-04-15T12:27:40.562Z,249.26
2023-04-15T12:28:40.494Z,249.51
2023-04-15T12:29:40.486Z,248.19
2023-04-15T12:30:40.861Z,248.96
2023-04-15T12:31:40.579Z,249.35
2023-04-15T12:32:42.231Z,248.98